createdAt,value
2022-12-23T00:01:26.767Z,9.22
2022-12-23T00:03:57.719Z,9.23
2022-12-23T00:06:25.305Z,9.24
2022-12-23T00:08:57.978Z,9.26
2022-12-23T00:11:26.091Z,9.24
2022-12-23T00:14:14.837Z,9.24
2022-12-23T00:16:44.974Z,9.23
2022-12-23T00:19:11.517Z,9.24
2022-12-23T00:21:37.973Z,9.24
2022-12-23T00:24:04.992Z,9.23
2022-12-23T00:26:31.416Z,9.22
2022-12-23T00:28:59.285Z,9.21
2022-12-23T00:31:26.291Z,9.22
2022-12-23T00:33:54.181Z,9.20
2022-12-23T00:36:24.943Z,9.20
2022-12-23T00:39:10.224Z,9.18
2022-12-23T00:41:55.268Z,9.17
2022-12-23T00:44:22.292Z,9.15
2022-12-23T00:46:48.958Z,9.14
2022-12-23T00:49:36.117Z,9.12
2022-12-23T00:52:05.199Z,9.10
2022-12-23T00:54:31.922Z,9.09
2022-12-23T00:56:59.123Z,9.07
2022-12-23T00:59:25.828Z,9.08
2022-12-23T01:02:11.511Z,9.06
2022-12-23T01:04:56.675Z,9.06
2022-12-23T01:07:24.117Z,9.05
2022-12-23T01:09:50.575Z,9.05
2022-12-23T01:12:17.361Z,9.05
2022-12-23T01:14:44.563Z,9.03
2022-12-23T01:17:11.368Z,9.02
2022-12-23T01:19:38.073Z,9.01
2022-12-23T01:22:05.019Z,9.00
2022-12-23T01:24:32.983Z,8.99
2022-12-23T01:27:00.014Z,8.99
2022-12-23T01:29:27.396Z,9.00
2022-12-23T01:31:54.161Z,8.99
2022-12-23T01:34:20.603Z,8.99
2022-12-23T01:36:47.117Z,8.98
2022-12-23T01:39:13.642Z,8.99
2022-12-23T01:41:58.316Z,8.98
2022-12-23T01:45:02.128Z,8.96
2022-12-23T01:47:46.777Z,8.98
2022-12-23T01:50:16.424Z,8.97
2022-12-23T01:52:51.658Z,8.98
2022-12-23T01:55:22.083Z,8.96
2022-12-23T01:57:49.232Z,8.96
2022-12-23T02:00:46.133Z,8.96
2022-12-23T02:03:30.988Z,8.95
2022-12-23T02:06:18.333Z,8.94
2022-12-23T02:09:03.253Z,8.93
2022-12-23T02:12:03.985Z,8.91
2022-12-23T02:14:55.412Z,8.88
2022-12-23T02:17:46.675Z,8.89
2022-12-23T02:20:37.550Z,8.89
2022-12-23T02:23:32.207Z,8.90
2022-12-23T02:26:32.041Z,8.88
2022-12-23T02:29:35.969Z,8.86
2022-12-23T02:32:29.984Z,8.84
2022-12-23T02:35:13.418Z,8.82
2022-12-23T02:37:53.161Z,8.80
2022-12-23T02:40:42.968Z,8.78
2022-12-23T02:43:27.945Z,8.78
2022-12-23T02:46:00.585Z,8.74
2022-12-23T02:48:37.078Z,8.72
2022-12-23T02:51:05.752Z,8.70
2022-12-23T02:53:40.318Z,8.69
2022-12-23T02:56:09.353Z,8.67
2022-12-23T02:58:40.155Z,8.61
2022-12-23T03:01:08.140Z,8.52
2022-12-23T03:03:36.738Z,8.51
2022-12-23T03:06:16.463Z,8.49
2022-12-23T03:08:44.775Z,8.48
2022-12-23T03:11:15.618Z,8.46
2022-12-23T03:13:56.269Z,8.43
2022-12-23T03:16:28.719Z,8.39
2022-12-23T03:19:25.990Z,8.34
2022-12-23T03:22:02.641Z,8.28
2022-12-23T03:24:41.160Z,8.21
2022-12-23T03:27:23.729Z,8.20
2022-12-23T03:30:04.539Z,8.20
2022-12-23T03:32:33.533Z,8.20
2022-12-23T03:35:02.473Z,8.22
2022-12-23T03:37:32.626Z,8.26
2022-12-23T03:40:07.399Z,8.27
2022-12-23T03:42:37.403Z,8.26
2022-12-23T03:45:37.432Z,8.22
2022-12-23T03:48:03.952Z,8.21
2022-12-23T03:50:31.930Z,8.21
2022-12-23T03:53:06.148Z,8.21
2022-12-23T03:55:41.228Z,8.23
2022-12-23T03:58:15.989Z,8.25
2022-12-23T04:00:50.468Z,8.26
2022-12-23T04:03:25.123Z,8.26
2022-12-23T04:05:57.455Z,8.27
2022-12-23T04:08:31.402Z,8.26
2022-12-23T04:10:58.270Z,8.26
2022-12-23T04:13:27.225Z,8.26
2022-12-23T04:15:54.417Z,8.28
2022-12-23T04:18:21.367Z,8.28
2022-12-23T04:20:47.880Z,8.30
2022-12-23T04:23:14.308Z,8.30
2022-12-23T04:25:40.833Z,8.31
2022-12-23T04:28:07.290Z,8.31
2022-12-23T04:30:34.839Z,8.31
2022-12-23T04:33:02.219Z,8.30
2022-12-23T04:35:29.088Z,8.32
2022-12-23T04:37:55.580Z,8.34
2022-12-23T04:40:22.039Z,8.33
2022-12-23T04:42:48.451Z,8.37
2022-12-23T04:45:15.101Z,8.37
2022-12-23T04:47:41.905Z,8.37
2022-12-23T04:50:13.489Z,8.36
2022-12-23T04:52:39.976Z,8.40
2022-12-23T04:55:07.328Z,8.36
2022-12-23T04:57:33.879Z,8.36
2022-12-23T05:00:00.353Z,8.36
2022-12-23T05:02:26.910Z,8.38
2022-12-23T05:04:53.374Z,8.38
2022-12-23T05:07:19.842Z,8.39
2022-12-23T05:09:46.363Z,8.40
2022-12-23T05:12:12.796Z,8.40
2022-12-23T05:14:39.263Z,8.40
2022-12-23T05:17:07.938Z,8.42
2022-12-23T05:19:34.697Z,8.42
2022-12-23T05:22:01.226Z,8.41
2022-12-23T05:24:27.655Z,8.42
2022-12-23T05:26:59.840Z,8.41
2022-12-23T05:29:27.470Z,8.43
2022-12-23T05:31:54.074Z,8.43
2022-12-23T05:34:21.767Z,8.41
2022-12-23T05:36:48.259Z,8.43
2022-12-23T05:39:14.898Z,8.42
2022-12-23T05:41:41.375Z,8.42
2022-12-23T05:44:07.922Z,8.42
2022-12-23T05:46:34.557Z,8.40
2022-12-23T05:49:01.194Z,8.40
2022-12-23T05:51:27.714Z,8.39
2022-12-23T05:53:54.736Z,8.40
2022-12-23T05:56:21.210Z,8.40
2022-12-23T05:58:48.128Z,8.39
2022-12-23T06:01:14.835Z,8.39
2022-12-23T06:03:41.448Z,8.39
2022-12-23T06:06:08.287Z,8.39
2022-12-23T06:08:34.836Z,8.37
2022-12-23T06:11:04.436Z,8.37
2022-12-23T06:13:30.885Z,8.37
2022-12-23T06:15:57.288Z,8.38
2022-12-23T06:18:24.420Z,8.37
2022-12-23T06:20:50.997Z,8.36
2022-12-23T06:23:17.506Z,8.36
2022-12-23T06:25:43.984Z,8.36
2022-12-23T06:28:10.481Z,8.36
2022-12-23T06:30:37.011Z,8.36
2022-12-23T06:33:03.547Z,8.35
2022-12-23T06:35:30.051Z,8.39
2022-12-23T06:37:56.546Z,8.37
2022-12-23T06:40:23.061Z,8.35
2022-12-23T06:42:49.548Z,8.34
2022-12-23T06:45:16.143Z,8.32
2022-12-23T06:47:42.625Z,8.32
2022-12-23T06:50:09.500Z,8.31
2022-12-23T06:52:35.911Z,8.32
2022-12-23T06:55:02.436Z,8.32
2022-12-23T06:57:28.947Z,8.34
2022-12-23T06:59:55.621Z,8.33
2022-12-23T07:02:22.205Z,8.33
2022-12-23T07:04:48.788Z,8.34
2022-12-23T07:07:15.429Z,8.35
2022-12-23T07:09:41.972Z,8.34
2022-12-23T07:12:08.453Z,8.34
2022-12-23T07:14:35.086Z,8.34
2022-12-23T07:17:01.659Z,8.34
2022-12-23T07:19:28.480Z,8.34
2022-12-23T07:21:54.980Z,8.32
2022-12-23T07:24:21.512Z,8.31
2022-12-23T07:26:48.015Z,8.33
2022-12-23T07:29:15.195Z,8.35
2022-12-23T07:31:42.074Z,8.33
2022-12-23T07:34:09.388Z,8.33
2022-12-23T07:36:35.915Z,8.33
2022-12-23T07:39:02.599Z,8.33
2022-12-23T07:41:29.530Z,8.35
2022-12-23T07:44:02.300Z,8.34
2022-12-23T07:46:28.876Z,8.36
2022-12-23T07:48:55.418Z,8.38
2022-12-23T07:51:21.832Z,8.39
2022-12-23T07:53:51.845Z,8.37
2022-12-23T07:56:19.020Z,8.36
2022-12-23T07:58:52.755Z,8.37
2022-12-23T08:01:20.030Z,8.38
2022-12-23T08:03:47.189Z,8.37
2022-12-23T08:06:15.228Z,8.37
2022-12-23T08:08:44.152Z,8.37
2022-12-23T08:11:11.090Z,8.37
2022-12-23T08:13:39.437Z,8.38
2022-12-23T08:16:07.279Z,8.40
2022-12-23T08:18:36.522Z,8.40
2022-12-23T08:21:06.533Z,8.41
2022-12-23T08:23:33.807Z,8.41
2022-12-23T08:26:09.970Z,8.40
2022-12-23T08:28:37.853Z,8.39
2022-12-23T08:31:05.292Z,8.39
2022-12-23T08:33:32.198Z,8.39
2022-12-23T08:35:58.645Z,8.39
2022-12-23T08:38:25.282Z,8.38
2022-12-23T08:40:51.993Z,8.40
2022-12-23T08:43:19.360Z,8.42
2022-12-23T08:45:45.850Z,8.42
2022-12-23T08:48:13.327Z,8.43
2022-12-23T08:50:43.027Z,8.45
2022-12-23T08:53:10.981Z,8.44
2022-12-23T08:55:43.072Z,8.46
2022-12-23T08:58:10.539Z,8.47
2022-12-23T09:00:38.766Z,8.47
2022-12-23T09:03:05.754Z,8.48
2022-12-23T09:05:32.506Z,8.47
2022-12-23T09:08:00.129Z,8.46
2022-12-23T09:10:26.635Z,8.45
2022-12-23T09:12:53.199Z,8.47
2022-12-23T09:15:19.800Z,8.47
2022-12-23T09:17:46.772Z,8.47
2022-12-23T09:20:13.510Z,8.48
2022-12-23T09:22:40.231Z,8.49
2022-12-23T09:25:06.966Z,8.49
2022-12-23T09:27:33.453Z,8.49
2022-12-23T09:29:59.898Z,8.49
2022-12-23T09:32:26.362Z,8.49
2022-12-23T09:34:52.784Z,8.50
2022-12-23T09:37:20.250Z,8.50
2022-12-23T09:39:46.750Z,8.53
2022-12-23T09:42:36.198Z,8.54
2022-12-23T09:45:15.940Z,8.57
2022-12-23T09:47:43.213Z,8.55
2022-12-23T09:50:17.989Z,8.56
2022-12-23T09:53:02.589Z,8.55
2022-12-23T09:55:37.787Z,8.55
2022-12-23T09:58:17.543Z,8.56
2022-12-23T10:01:00.361Z,8.58
2022-12-23T10:03:39.621Z,8.59
2022-12-23T10:06:24.446Z,8.62
2022-12-23T10:08:56.831Z,8.62
2022-12-23T10:11:37.903Z,8.66
2022-12-23T10:14:14.256Z,8.65
2022-12-23T10:16:47.141Z,8.67
2022-12-23T10:19:41.562Z,8.69
2022-12-23T10:22:43.113Z,8.69
2022-12-23T10:25:36.619Z,8.70
2022-12-23T10:28:03.249Z,8.69
2022-12-23T10:31:05.897Z,8.72
2022-12-23T10:33:30.397Z,8.72
2022-12-23T10:36:15.231Z,8.74
2022-12-23T10:38:59.043Z,8.76
2022-12-23T10:41:35.624Z,8.75
2022-12-23T10:44:26.318Z,8.76
2022-12-23T10:47:27.456Z,8.72
2022-12-23T10:50:29.494Z,8.72
2022-12-23T10:53:00.859Z,8.74
2022-12-23T10:55:34.285Z,8.74
2022-12-23T10:58:11.783Z,8.72
2022-12-23T11:00:41.261Z,8.75
2022-12-23T11:03:17.881Z,8.76
2022-12-23T11:05:46.520Z,8.77
2022-12-23T11:08:13.088Z,8.79
2022-12-23T11:10:40.081Z,8.81
2022-12-23T11:13:06.644Z,8.81
2022-12-23T11:15:41.500Z,8.82
2022-12-23T11:18:13.909Z,8.82
2022-12-23T11:20:43.098Z,8.82
2022-12-23T11:23:29.150Z,8.83
2022-12-23T11:26:07.831Z,8.85
2022-12-23T11:28:37.584Z,8.85
2022-12-23T11:31:09.731Z,8.87
2022-12-23T11:33:39.795Z,8.87
2022-12-23T11:36:18.990Z,8.85
2022-12-23T11:39:02.688Z,8.86
2022-12-23T11:41:36.075Z,8.88
2022-12-23T11:44:12.281Z,8.90
2022-12-23T11:46:38.895Z,8.91
2022-12-23T11:49:16.496Z,8.92
2022-12-23T11:51:45.432Z,8.91
2022-12-23T11:54:18.091Z,8.92
2022-12-23T11:56:48.355Z,8.92
2022-12-23T11:59:38.344Z,8.94
2022-12-23T12:02:20.991Z,8.94
2022-12-23T12:05:00.061Z,8.94
2022-12-23T12:07:27.520Z,8.95
2022-12-23T12:09:57.738Z,8.95
2022-12-23T12:12:24.473Z,8.95
2022-12-23T12:14:54.248Z,8.94
2022-12-23T12:17:38.097Z,8.92
2022-12-23T12:20:14.424Z,8.93
2022-12-23T12:22:47.937Z,8.92
2022-12-23T12:25:26.043Z,8.93
2022-12-23T12:28:02.972Z,8.93
2022-12-23T12:30:34.664Z,8.93
2022-12-23T12:33:08.739Z,8.92
2022-12-23T12:35:44.476Z,8.91
2022-12-23T12:38:20.486Z,8.90
2022-12-23T12:40:55.094Z,8.89
2022-12-23T12:43:27.629Z,8.89
2022-12-23T12:45:59.959Z,8.89
2022-12-23T12:48:49.133Z,8.89
2022-12-23T12:51:24.916Z,8.88
2022-12-23T12:54:06.283Z,8.86
2022-12-23T12:56:36.482Z,8.88
2022-12-23T12:59:04.053Z,8.86
2022-12-23T13:01:57.232Z,8.86
2022-12-23T13:04:45.599Z,8.85
2022-12-23T13:07:47.853Z,8.87
2022-12-23T13:10:33.108Z,8.86
2022-12-23T13:13:06.823Z,8.86
2022-12-23T13:15:40.501Z,8.90
2022-12-23T13:18:09.972Z,8.91
2022-12-23T13:20:46.204Z,8.90
2022-12-23T13:23:45.828Z,8.91
2022-12-23T13:26:33.472Z,8.89
2022-12-23T13:29:17.937Z,8.89
2022-12-23T13:31:53.885Z,8.88
2022-12-23T13:35:11.482Z,8.88
2022-12-23T13:38:14.350Z,8.85
2022-12-23T13:41:02.820Z,8.85
2022-12-23T13:43:46.047Z,8.84
2022-12-23T13:46:23.409Z,8.85
2022-12-23T13:49:06.798Z,8.84
2022-12-23T13:51:40.641Z,8.86
2022-12-23T13:54:16.762Z,8.86
2022-12-23T13:56:46.472Z,8.86
2022-12-23T13:59:15.946Z,8.84
2022-12-23T14:01:42.442Z,8.84
2022-12-23T14:04:35.526Z,8.82
2022-12-23T14:07:19.028Z,8.83
2022-12-23T14:09:51.893Z,8.83
2022-12-23T14:12:31.423Z,8.83
2022-12-23T14:15:03.785Z,8.86
2022-12-23T14:17:44.444Z,8.87
2022-12-23T14:20:34.008Z,8.91
2022-12-23T14:23:24.271Z,8.98
2022-12-23T14:25:55.359Z,9.01
2022-12-23T14:28:40.989Z,9.04
2022-12-23T14:31:37.465Z,9.01
2022-12-23T14:34:31.951Z,9.00
2022-12-23T14:37:20.280Z,8.96
2022-12-23T14:39:48.568Z,8.94
2022-12-23T14:42:34.483Z,8.90
2022-12-23T14:45:33.668Z,8.89
2022-12-23T14:48:00.272Z,8.89
2022-12-23T14:51:07.902Z,8.87
2022-12-23T14:53:36.760Z,8.88
2022-12-23T14:56:09.251Z,8.89
2022-12-23T14:58:48.074Z,8.92
2022-12-23T15:01:33.053Z,8.91
2022-12-23T15:04:07.979Z,8.89
2022-12-23T15:06:43.065Z,8.88
2022-12-23T15:09:24.743Z,8.86
2022-12-23T15:11:53.297Z,8.86
2022-12-23T15:14:31.397Z,8.85
2022-12-23T15:16:58.292Z,8.85
2022-12-23T15:19:27.070Z,8.83
2022-12-23T15:22:17.217Z,8.83
2022-12-23T15:24:48.004Z,8.81
2022-12-23T15:27:28.765Z,8.79
2022-12-23T15:29:57.261Z,8.77
2022-12-23T15:32:25.287Z,8.75
2022-12-23T15:34:55.253Z,8.73
2022-12-23T15:37:27.715Z,8.73
2022-12-23T15:40:03.445Z,8.74
2022-12-23T15:42:38.300Z,8.72
2022-12-23T15:45:23.214Z,8.72
2022-12-23T15:47:50.722Z,8.71
2022-12-23T15:50:18.976Z,8.72
2022-12-23T15:52:47.981Z,8.72
2022-12-23T15:55:25.379Z,8.71
2022-12-23T15:57:52.354Z,8.71
2022-12-23T16:00:28.681Z,8.72
2022-12-23T16:03:00.928Z,8.73
2022-12-23T16:05:33.533Z,8.74
2022-12-23T16:08:16.100Z,8.73
2022-12-23T16:11:04.623Z,8.75
2022-12-23T16:13:32.915Z,8.77
2022-12-23T16:16:33.116Z,8.77
2022-12-23T16:19:00.267Z,8.77
2022-12-23T16:21:33.631Z,8.76
2022-12-23T16:24:01.651Z,8.77
2022-12-23T16:26:28.160Z,8.77
2022-12-23T16:28:59.356Z,8.77
2022-12-23T16:31:26.359Z,8.76
2022-12-23T16:34:00.979Z,8.76
2022-12-23T16:36:27.446Z,8.75
2022-12-23T16:39:08.997Z,8.75
2022-12-23T16:41:35.950Z,8.75
2022-12-23T16:44:03.857Z,8.75
2022-12-23T16:46:36.011Z,8.74
2022-12-23T16:49:05.257Z,8.74
2022-12-23T16:51:34.151Z,8.76
2022-12-23T16:54:01.657Z,8.76
2022-12-23T16:56:31.860Z,8.77
2022-12-23T16:58:58.328Z,8.77
2022-12-23T17:01:29.456Z,8.77
2022-12-23T17:03:56.140Z,8.75
2022-12-23T17:06:23.359Z,8.76
2022-12-23T17:08:50.686Z,8.76
2022-12-23T17:11:21.508Z,8.76
2022-12-23T17:13:48.100Z,8.76
2022-12-23T17:16:19.821Z,8.75
2022-12-23T17:18:51.202Z,8.75
2022-12-23T17:21:31.428Z,8.74
2022-12-23T17:24:25.469Z,8.76
2022-12-23T17:26:53.302Z,8.77
2022-12-23T17:29:44.752Z,8.76
2022-12-23T17:32:17.680Z,8.76
2022-12-23T17:34:44.579Z,8.75
2022-12-23T17:37:19.817Z,8.76
2022-12-23T17:39:47.442Z,8.78
2022-12-23T17:42:25.786Z,8.79
2022-12-23T17:44:52.892Z,8.80
2022-12-23T17:47:22.175Z,8.81
2022-12-23T17:49:49.370Z,8.81
2022-12-23T17:52:21.361Z,8.85
2022-12-23T17:54:49.425Z,8.90
2022-12-23T17:57:24.365Z,8.91
2022-12-23T17:59:53.263Z,8.95
2022-12-23T18:02:33.003Z,9.00
2022-12-23T18:04:59.841Z,9.02
2022-12-23T18:07:26.524Z,9.06
2022-12-23T18:09:53.329Z,9.09
2022-12-23T18:12:34.597Z,9.12
2022-12-23T18:15:02.301Z,9.20
2022-12-23T18:17:29.035Z,9.22
2022-12-23T18:19:55.530Z,9.25
2022-12-23T18:22:24.282Z,9.28
2022-12-23T18:24:57.002Z,9.32
2022-12-23T18:27:25.245Z,9.41
2022-12-23T18:29:51.889Z,9.45
2022-12-23T18:32:24.968Z,9.48
2022-12-23T18:34:53.512Z,9.51
2022-12-23T18:37:21.294Z,9.52
2022-12-23T18:39:48.536Z,9.55
2022-12-23T18:42:17.372Z,9.54
2022-12-23T18:44:45.394Z,9.55
2022-12-23T18:47:18.220Z,9.57
2022-12-23T18:49:44.704Z,9.56
2022-12-23T18:52:14.632Z,9.59
2022-12-23T18:54:41.627Z,9.59
2022-12-23T18:57:10.585Z,9.63
2022-12-23T18:59:38.949Z,9.61
2022-12-23T19:02:06.129Z,9.62
2022-12-23T19:04:32.674Z,9.61
2022-12-23T19:06:59.274Z,9.61
2022-12-23T19:09:25.967Z,9.60
2022-12-23T19:11:53.651Z,9.61
2022-12-23T19:14:20.340Z,9.61
2022-12-23T19:16:51.598Z,9.60
2022-12-23T19:19:18.825Z,9.58
2022-12-23T19:21:45.375Z,9.57
2022-12-23T19:24:11.844Z,9.58
2022-12-23T19:26:38.306Z,9.58
2022-12-23T19:29:05.260Z,9.60
2022-12-23T19:31:34.016Z,9.59
2022-12-23T19:34:00.710Z,9.56
2022-12-23T19:36:27.806Z,9.56
2022-12-23T19:38:56.559Z,9.56
2022-12-23T19:41:23.156Z,9.57
2022-12-23T19:43:49.651Z,9.57
2022-12-23T19:46:16.887Z,9.57
2022-12-23T19:48:43.917Z,9.56
2022-12-23T19:51:12.936Z,9.55
2022-12-23T19:53:40.340Z,9.55
2022-12-23T19:56:11.365Z,9.53
2022-12-23T19:58:40.000Z,9.57
2022-12-23T20:01:15.429Z,9.60
2022-12-23T20:03:43.911Z,9.63
2022-12-23T20:06:18.339Z,9.62
2022-12-23T20:08:45.035Z,9.63
2022-12-23T20:11:14.172Z,9.62
2022-12-23T20:13:40.783Z,9.61
2022-12-23T20:16:08.063Z,9.62
2022-12-23T20:18:34.915Z,9.61
2022-12-23T20:21:01.868Z,9.63
2022-12-23T20:23:29.677Z,9.63
2022-12-23T20:25:56.405Z,9.65
2022-12-23T20:28:23.515Z,9.65
2022-12-23T20:31:00.101Z,9.64
2022-12-23T20:33:26.677Z,9.65
2022-12-23T20:35:53.221Z,9.64
2022-12-23T20:38:20.597Z,9.65
2022-12-23T20:40:47.088Z,9.67
2022-12-23T20:43:15.457Z,9.68
2022-12-23T20:45:43.057Z,9.66
2022-12-23T20:48:10.208Z,9.67
2022-12-23T20:50:40.510Z,9.67
2022-12-23T20:53:07.079Z,9.68
2022-12-23T20:55:33.697Z,9.71
2022-12-23T20:58:23.219Z,9.69
2022-12-23T21:00:50.753Z,9.67
2022-12-23T21:03:17.507Z,9.68
2022-12-23T21:05:43.988Z,9.70
2022-12-23T21:08:10.681Z,9.71
2022-12-23T21:10:37.283Z,9.68
2022-12-23T21:13:04.303Z,9.69
2022-12-23T21:15:32.382Z,9.66
2022-12-23T21:17:59.725Z,9.65
2022-12-23T21:20:26.204Z,9.63
2022-12-23T21:22:52.791Z,9.61
2022-12-23T21:25:19.330Z,9.59
2022-12-23T21:27:45.761Z,9.60
2022-12-23T21:30:13.207Z,9.57
2022-12-23T21:32:39.670Z,9.57
2022-12-23T21:35:06.750Z,9.55
2022-12-23T21:37:33.181Z,9.56
2022-12-23T21:39:59.645Z,9.56
2022-12-23T21:42:26.071Z,9.59
2022-12-23T21:44:52.743Z,9.57
2022-12-23T21:47:19.206Z,9.55
2022-12-23T21:49:45.647Z,9.53
2022-12-23T21:52:12.157Z,9.50
2022-12-23T21:54:38.727Z,9.50
2022-12-23T21:57:05.391Z,9.51
2022-12-23T21:59:35.147Z,9.51
2022-12-23T22:02:02.223Z,9.49
2022-12-23T22:04:28.828Z,9.52
2022-12-23T22:06:55.324Z,9.50
2022-12-23T22:09:21.983Z,9.52
2022-12-23T22:11:48.884Z,9.49
2022-12-23T22:14:18.823Z,9.46
2022-12-23T22:16:45.605Z,9.45
2022-12-23T22:19:12.596Z,9.39
2022-12-23T22:21:39.764Z,9.36
2022-12-23T22:24:07.012Z,9.32
2022-12-23T22:26:33.930Z,9.30
2022-12-23T22:29:02.536Z,9.26
2022-12-23T22:31:35.691Z,9.23
2022-12-23T22:34:02.897Z,9.19
2022-12-23T22:36:29.780Z,9.19
2022-12-23T22:38:58.423Z,9.17
2022-12-23T22:41:27.793Z,9.18
2022-12-23T22:43:54.619Z,9.16
2022-12-23T22:46:21.368Z,9.16
2022-12-23T22:48:47.970Z,9.18
2022-12-23T22:51:18.110Z,9.15
2022-12-23T22:53:45.536Z,9.11
2022-12-23T22:56:13.943Z,9.09
2022-12-23T22:58:40.751Z,9.09
2022-12-23T23:01:25.932Z,9.07
2022-12-23T23:03:57.398Z,9.07
2022-12-23T23:06:29.195Z,9.08
2022-12-23T23:08:56.586Z,9.08
2022-12-23T23:11:24.561Z,9.09
2022-12-23T23:13:51.766Z,9.09
2022-12-23T23:16:18.455Z,9.07
2022-12-23T23:18:45.247Z,9.07
2022-12-23T23:21:16.302Z,9.09
2022-12-23T23:23:42.765Z,9.07
2022-12-23T23:26:10.271Z,9.05
2022-12-23T23:28:39.306Z,9.01
2022-12-23T23:31:39.861Z,9.03
2022-12-23T23:33:52.823Z,9.01
2022-12-23T23:36:20.262Z,9.06
2022-12-23T23:38:46.686Z,9.08
2022-12-23T23:41:16.181Z,9.08
2022-12-23T23:43:47.034Z,9.06
2022-12-23T23:46:13.556Z,9.08
2022-12-23T23:48:40.119Z,9.06
2022-12-23T23:51:07.161Z,9.06
2022-12-23T23:53:34.034Z,9.10
2022-12-23T23:56:05.711Z,9.07
2022-12-23T23:58:32.549Z,9.08
